Time;durP1;ratioP1;P1;durP2;ratioP2;P2;SDS_P1;SDS_P2;PMS_P1;PMS_P2;Temp;Humidity;BMP_temperature;BMP_pressure;BME280_temperature;BME280_humidity;BME280_pressure;Samples;Min_cycle;Max_cycle;Signal;HPM_P1;HPM_P2
2024/01/06 05:02:19;;;;;;;4.40;3.20;;;1.00;99.90;;;;;;5027039;23;20918;-73
2024/01/06 05:04:46;;;;;;;3.30;2.90;;;1.00;99.90;;;;;;4898000;29;20207;-74
2024/01/06 05:07:12;;;;;;;6.07;3.22;;;1.00;99.90;;;;;;4897969;29;20234;-74
2024/01/06 05:09:39;;;;;;;2.50;2.30;;;1.00;99.90;;;;;;4897684;29;20219;-74
2024/01/06 05:12:06;;;;;;;5.50;4.38;;;1.00;99.90;;;;;;4897034;29;20606;-73
2024/01/06 05:14:33;;;;;;;3.47;3.17;;;1.00;99.90;;;;;;4896768;29;20223;-73
2024/01/06 05:17:00;;;;;;;4.20;4.00;;;1.00;99.90;;;;;;4895704;29;20546;-73
2024/01/06 05:19:28;;;;;;;3.00;2.20;;;1.00;99.90;;;;;;4896749;29;20305;-73
2024/01/06 05:21:54;;;;;;;5.05;3.00;;;1.00;99.90;;;;;;4896088;29;20242;-73
2024/01/06 05:24:21;;;;;;;4.97;4.00;;;1.00;99.90;;;;;;4893173;29;20238;-73
2024/01/06 05:26:48;;;;;;;5.78;3.30;;;1.00;99.90;;;;;;4893942;29;20207;-72
2024/01/06 05:29:14;;;;;;;3.67;3.38;;;1.00;99.90;;;;;;4896593;29;20588;-73
2024/01/06 05:31:41;;;;;;;4.20;3.90;;;1.00;99.90;;;;;;4896200;29;20238;-73
2024/01/06 05:34:08;;;;;;;3.85;2.95;;;1.00;99.90;;;;;;4895324;29;20212;-73
2024/01/06 05:36:36;;;;;;;5.80;3.97;;;1.00;99.90;;;;;;4895787;29;20219;-73
2024/01/06 05:39:03;;;;;;;4.15;3.95;;;0.90;99.90;;;;;;4896336;29;20590;-73
2024/01/06 05:41:29;;;;;;;5.82;4.47;;;0.90;99.90;;;;;;4894096;29;20295;-72
2024/01/06 05:43:56;;;;;;;3.60;2.22;;;0.90;99.90;;;;;;4894399;29;20272;-73
2024/01/06 05:46:23;;;;;;;3.30;3.20;;;0.90;99.90;;;;;;4895687;29;20270;-73
2024/01/06 05:48:50;;;;;;;5.20;4.55;;;0.90;99.90;;;;;;4895274;29;20294;-73
2024/01/06 05:51:17;;;;;;;4.47;2.30;;;0.90;99.90;;;;;;4893150;29;20234;-73
2024/01/06 05:53:45;;;;;;;4.38;3.60;;;0.90;99.90;;;;;;4894648;29;20207;-73
2024/01/06 05:56:11;;;;;;;4.13;3.83;;;0.90;99.90;;;;;;4894551;29;20262;-73
2024/01/06 05:58:38;;;;;;;4.07;2.92;;;0.90;99.90;;;;;;4895624;29;20210;-73
2024/01/06 06:01:05;;;;;;;3.83;3.63;;;0.90;99.90;;;;;;4894546;29;20658;-73
2024/01/06 06:03:32;;;;;;;6.18;4.95;;;0.90;99.90;;;;;;4895481;29;20940;-73
2024/01/06 06:05:58;;;;;;;7.15;3.67;;;0.90;99.90;;;;;;4895571;29;20600;-72
2024/01/06 06:08:25;;;;;;;8.05;4.47;;;0.90;99.90;;;;;;4894468;29;20218;-73
2024/01/06 06:11:01;;;;;;;4.45;3.42;;;0.80;99.90;;;;;;4894352;29;20710;-73
2024/01/06 06:13:28;;;;;;;11.68;6.22;;;0.90;99.90;;;;;;4894685;29;20211;-73
2024/01/06 06:15:55;;;;;;;8.30;3.78;;;0.80;99.90;;;;;;4894492;29;20211;-73
2024/01/06 06:18:22;;;;;;;6.45;3.08;;;0.90;99.90;;;;;;4894833;29;20211;-73
2024/01/06 06:20:49;;;;;;;6.25;4.15;;;0.90;99.90;;;;;;4895391;29;20223;-73
2024/01/06 06:23:16;;;;;;;5.13;4.05;;;0.90;99.90;;;;;;4889965;29;20238;-73
2024/01/06 06:25:42;;;;;;;6.38;2.95;;;0.90;99.90;;;;;;4895270;29;20795;-72
2024/01/06 06:28:10;;;;;;;4.25;3.67;;;0.90;99.90;;;;;;4894448;29;20207;-72
2024/01/06 06:30:37;;;;;;;10.10;3.67;;;0.90;99.90;;;;;;4895032;29;20227;-73
2024/01/06 06:33:04;;;;;;;3.85;3.10;;;0.90;99.90;;;;;;4894634;29;20246;-73
2024/01/06 06:35:31;;;;;;;4.95;4.55;;;0.90;99.90;;;;;;4893535;29;20219;-72
2024/01/06 06:37:58;;;;;;;7.55;2.53;;;0.90;99.90;;;;;;4894275;29;20219;-73
2024/01/06 06:40:24;;;;;;;5.65;5.18;;;0.90;99.90;;;;;;4895527;29;20218;-73
2024/01/06 06:42:51;;;;;;;4.38;4.07;;;0.90;99.90;;;;;;4894704;29;20266;-73
2024/01/06 06:45:22;;;;;;;10.85;4.53;;;0.90;99.90;;;;;;4896630;29;20212;-73
2024/01/06 06:47:49;;;;;;;6.07;4.82;;;0.90;99.90;;;;;;4896282;29;20219;-73
2024/01/06 06:50:16;;;;;;;3.85;3.28;;;0.90;99.90;;;;;;4896484;29;20666;-72
2024/01/06 06:52:43;;;;;;;11.15;4.35;;;0.80;99.90;;;;;;4895226;29;20211;-72
2024/01/06 06:55:09;;;;;;;5.88;3.55;;;0.80;99.90;;;;;;4895627;29;20665;-71
2024/01/06 06:57:36;;;;;;;4.10;3.80;;;0.80;99.90;;;;;;4893925;29;20291;-71
2024/01/06 07:00:03;;;;;;;1.88;1.77;;;0.80;99.90;;;;;;4901662;29;20396;-72
2024/01/06 07:02:31;;;;;;;6.45;4.18;;;0.80;99.90;;;;;;4898053;29;20329;-72
2024/01/06 07:04:58;;;;;;;6.30;4.70;;;0.80;99.90;;;;;;4900753;29;20212;-72
2024/01/06 07:07:25;;;;;;;6.38;4.65;;;0.90;99.90;;;;;;4897967;29;20215;-72
2024/01/06 07:09:52;;;;;;;5.03;4.70;;;0.80;99.90;;;;;;4899713;29;20226;-72
2024/01/06 07:12:18;;;;;;;5.93;4.80;;;0.80;99.90;;;;;;4898157;29;20227;-72
2024/01/06 07:14:45;;;;;;;5.43;4.93;;;0.80;99.90;;;;;;4901205;29;20302;-72
2024/01/06 07:17:12;;;;;;;8.07;4.38;;;0.80;99.90;;;;;;4900383;29;20222;-72
2024/01/06 07:19:40;;;;;;;8.35;7.68;;;0.80;99.90;;;;;;4895325;29;20604;-72
2024/01/06 07:22:07;;;;;;;6.28;5.55;;;0.80;99.90;;;;;;4901581;29;20235;-72
2024/01/06 07:24:34;;;;;;;7.00;5.70;;;0.80;99.90;;;;;;4904014;29;20215;-71
2024/01/06 07:27:00;;;;;;;12.38;8.18;;;0.80;99.90;;;;;;4900645;29;20215;-72
2024/01/06 07:29:27;;;;;;;11.07;6.22;;;0.80;99.90;;;;;;4898725;29;20215;-71
2024/01/06 07:31:54;;;;;;;6.35;4.65;;;0.80;99.90;;;;;;4897403;29;20231;-71
2024/01/06 07:34:20;;;;;;;5.00;3.78;;;0.80;99.90;;;;;;4896763;29;20210;-72
2024/01/06 07:36:49;;;;;;;8.75;4.95;;;0.80;99.90;;;;;;4896676;29;20230;-72
2024/01/06 07:39:15;;;;;;;6.57;6.07;;;0.80;99.90;;;;;;4896821;29;20211;-71
2024/01/06 07:41:43;;;;;;;7.18;4.72;;;0.80;99.90;;;;;;4897209;29;20231;-71
2024/01/06 07:44:09;;;;;;;5.63;4.05;;;0.80;99.90;;;;;;4894170;29;20239;-71
2024/01/06 07:46:36;;;;;;;6.13;5.63;;;0.80;99.90;;;;;;4898355;29;20219;-71
2024/01/06 07:49:04;;;;;;;5.88;4.07;;;0.80;99.90;;;;;;4895916;29;20274;-71
2024/01/06 07:51:31;;;;;;;9.65;4.43;;;0.70;99.90;;;;;;4897120;29;20777;-71
2024/01/06 07:53:59;;;;;;;4.88;4.47;;;0.70;99.90;;;;;;4892015;29;20736;-70
2024/01/06 07:56:26;;;;;;;11.63;5.55;;;0.70;99.90;;;;;;4897283;29;20211;-71
2024/01/06 07:58:53;;;;;;;6.85;3.28;;;0.70;99.90;;;;;;4896468;29;20207;-71
2024/01/06 08:01:20;;;;;;;11.88;7.28;;;0.70;99.90;;;;;;4897306;29;20245;-71
2024/01/06 08:03:46;;;;;;;8.00;4.20;;;0.70;99.90;;;;;;4896388;29;20706;-71
2024/01/06 08:06:13;;;;;;;3.38;3.17;;;0.70;99.90;;;;;;4897604;29;20207;-71
2024/01/06 08:08:40;;;;;;;8.00;5.75;;;0.70;99.90;;;;;;4896898;29;20211;-71
2024/01/06 08:11:08;;;;;;;8.02;6.10;;;0.60;99.90;;;;;;4897390;29;20580;-71
2024/01/06 08:13:35;;;;;;;9.88;5.78;;;0.70;99.90;;;;;;4896436;29;20211;-71
2024/01/06 08:16:01;;;;;;;3.88;3.53;;;0.70;99.90;;;;;;4894436;29;20211;-71
2024/01/06 08:18:28;;;;;;;7.93;6.78;;;0.60;99.90;;;;;;4893664;29;20700;-71
2024/01/06 08:20:55;;;;;;;5.80;4.80;;;0.60;99.90;;;;;;4894564;29;20223;-71
2024/01/06 08:23:22;;;;;;;4.90;4.50;;;0.60;99.90;;;;;;4895050;29;20235;-71
2024/01/06 08:25:49;;;;;;;5.45;4.28;;;0.60;99.90;;;;;;4894925;29;20234;-71
2024/01/06 08:28:18;;;;;;;10.80;4.75;;;0.60;99.90;;;;;;4891036;29;20618;-70
2024/01/06 08:30:45;;;;;;;5.63;4.57;;;0.60;99.90;;;;;;4894362;29;20589;-70
2024/01/06 08:33:12;;;;;;;9.70;6.38;;;0.60;99.90;;;;;;4892774;29;20235;-71
2024/01/06 08:35:40;;;;;;;7.70;4.80;;;0.60;99.90;;;;;;4894642;29;20211;-71
2024/01/06 08:38:07;;;;;;;7.18;3.47;;;0.60;99.90;;;;;;4895839;29;20298;-70
2024/01/06 08:40:33;;;;;;;8.02;4.15;;;0.60;99.90;;;;;;4889242;29;20227;-71
2024/01/06 08:43:00;;;;;;;6.38;5.43;;;0.60;99.90;;;;;;4894839;29;20227;-70
2024/01/06 08:45:28;;;;;;;7.55;3.45;;;0.60;99.90;;;;;;4895779;29;20230;-71
2024/01/06 08:47:55;;;;;;;7.70;6.07;;;0.60;99.90;;;;;;4895942;29;20204;-71
2024/01/06 08:50:22;;;;;;;4.07;3.78;;;0.60;99.90;;;;;;4895300;29;20841;-71
2024/01/06 08:52:48;;;;;;;8.13;4.72;;;0.60;99.90;;;;;;4895538;29;20207;-71
2024/01/06 08:55:16;;;;;;;6.90;4.90;;;0.60;99.90;;;;;;4894792;29;20218;-70
2024/01/06 08:57:43;;;;;;;6.80;3.65;;;0.60;99.90;;;;;;4893309;29;20349;-71
2024/01/06 09:00:10;;;;;;;6.00;5.30;;;0.60;99.90;;;;;;4894986;29;20677;-71
2024/01/06 09:02:39;;;;;;;4.78;4.40;;;0.50;99.90;;;;;;4892869;29;20836;-71
2024/01/06 09:05:06;;;;;;;8.85;5.75;;;0.50;99.90;;;;;;4894959;29;20283;-70
2024/01/06 09:07:33;;;;;;;4.72;4.32;;;0.50;99.90;;;;;;4896342;29;20277;-71
2024/01/06 09:10:00;;;;;;;5.13;4.72;;;0.50;99.90;;;;;;4897798;29;20223;-70
2024/01/06 09:12:27;;;;;;;4.28;3.92;;;0.60;99.90;;;;;;4895235;29;20243;-71
2024/01/06 09:14:53;;;;;;;5.03;2.90;;;0.60;99.90;;;;;;4893922;29;20199;-70
2024/01/06 09:17:20;;;;;;;8.23;4.43;;;0.50;99.90;;;;;;4896637;29;20233;-71
2024/01/06 09:19:48;;;;;;;11.73;7.00;;;0.60;99.90;;;;;;4889594;29;20211;-71
2024/01/06 09:22:15;;;;;;;10.65;5.90;;;0.60;99.90;;;;;;4896148;29;20235;-71
2024/01/06 09:24:42;;;;;;;6.53;4.10;;;0.60;99.90;;;;;;4896360;29;20304;-70
2024/01/06 09:27:09;;;;;;;6.18;4.05;;;0.60;99.90;;;;;;4894872;29;20242;-70
2024/01/06 09:29:36;;;;;;;5.57;4.82;;;0.60;99.90;;;;;;4893430;29;20219;-70
2024/01/06 09:32:03;;;;;;;5.45;4.95;;;0.60;99.90;;;;;;4894624;29;20235;-70
2024/01/06 09:34:29;;;;;;;6.13;5.50;;;0.50;99.90;;;;;;4895425;29;20298;-70
2024/01/06 09:36:57;;;;;;;6.43;4.68;;;0.60;99.90;;;;;;4895014;29;20219;-70
2024/01/06 09:39:24;;;;;;;5.10;3.83;;;0.60;99.90;;;;;;4895279;29;20216;-69
2024/01/06 09:41:51;;;;;;;2.90;2.80;;;0.60;99.90;;;;;;4891643;29;20706;-70
2024/01/06 09:44:18;;;;;;;7.55;5.10;;;0.60;99.90;;;;;;4894117;29;20303;-70
2024/01/06 09:46:45;;;;;;;5.25;2.78;;;0.50;99.90;;;;;;4893513;29;20213;-70
2024/01/06 09:49:14;;;;;;;4.82;4.47;;;0.50;99.90;;;;;;4892749;29;20689;-70
2024/01/06 09:51:42;;;;;;;4.25;3.88;;;0.50;99.90;;;;;;4892076;29;20233;-70
2024/01/06 09:54:12;;;;;;;14.13;6.75;;;0.50;99.90;;;;;;4891328;29;20324;-69
2024/01/06 09:56:40;;;;;;;5.70;4.28;;;0.50;99.90;;;;;;4892932;29;20211;-70
2024/01/06 09:59:07;;;;;;;4.35;3.95;;;0.50;99.90;;;;;;4888999;29;20222;-70
2024/01/06 10:01:34;;;;;;;13.25;7.35;;;0.50;99.90;;;;;;4894374;29;20257;-71
2024/01/06 10:04:00;;;;;;;3.60;3.38;;;0.50;99.90;;;;;;4895065;29;20326;-70
2024/01/06 10:06:27;;;;;;;7.40;5.15;;;0.50;99.90;;;;;;4894061;29;20219;-71
2024/01/06 10:08:54;;;;;;;4.72;4.30;;;0.50;99.90;;;;;;4891359;29;20212;-67
2024/01/06 10:11:23;;;;;;;4.55;3.33;;;0.50;99.90;;;;;;4894230;29;20241;-67
2024/01/06 10:13:50;;;;;;;6.35;4.38;;;0.50;99.90;;;;;;4892118;29;20203;-70
2024/01/06 10:16:17;;;;;;;7.88;3.55;;;0.50;99.90;;;;;;4894101;29;20290;-70
2024/01/06 10:18:45;;;;;;;4.72;4.30;;;0.50;99.90;;;;;;4892621;29;20250;-70
2024/01/06 10:21:12;;;;;;;5.63;5.43;;;0.40;99.90;;;;;;4890214;29;20611;-69
2024/01/06 10:23:38;;;;;;;4.85;4.40;;;0.50;99.90;;;;;;4889489;29;20232;-69
2024/01/06 10:26:05;;;;;;;5.07;4.68;;;0.50;99.90;;;;;;4890761;29;20214;-69
2024/01/06 10:28:33;;;;;;;5.22;3.30;;;0.50;99.90;;;;;;4892955;29;20218;-69
2024/01/06 10:31:01;;;;;;;5.75;4.35;;;0.50;99.90;;;;;;4891442;29;20318;-69
2024/01/06 10:33:27;;;;;;;6.35;5.50;;;0.50;99.90;;;;;;4890263;29;20306;-70
2024/01/06 10:35:55;;;;;;;8.07;4.78;;;0.50;99.90;;;;;;4894572;29;20210;-70
2024/01/06 10:38:22;;;;;;;2.80;2.63;;;0.50;99.90;;;;;;4893056;29;20267;-69
2024/01/06 10:40:59;;;;;;;7.18;5.30;;;0.50;99.90;;;;;;4893202;29;20710;-70
2024/01/06 10:43:28;;;;;;;9.68;5.20;;;0.50;99.90;;;;;;4894151;29;20222;-70
2024/01/06 10:45:57;;;;;;;5.97;5.60;;;0.50;99.90;;;;;;4892893;29;20623;-69
2024/01/06 10:48:26;;;;;;;12.48;5.60;;;0.50;99.90;;;;;;4895293;29;20223;-70
2024/01/06 10:50:55;;;;;;;6.57;4.47;;;0.60;99.90;;;;;;4894393;29;20639;-70
2024/01/06 10:53:23;;;;;;;4.88;3.80;;;0.60;99.90;;;;;;4893776;29;20634;-69
2024/01/06 10:55:51;;;;;;;7.40;6.78;;;0.60;99.90;;;;;;4893025;29;20211;-70
2024/01/06 10:58:18;;;;;;;6.10;3.45;;;0.60;99.90;;;;;;4893186;29;20583;-70
2024/01/06 11:00:45;;;;;;;6.00;5.40;;;0.60;99.90;;;;;;4892449;29;20246;-70
2024/01/06 11:03:14;;;;;;;10.95;5.00;;;0.50;99.90;;;;;;4894152;29;20207;-70
2024/01/06 11:05:42;;;;;;;6.93;3.95;;;0.60;99.90;;;;;;4894027;29;20270;-69
2024/01/06 11:08:10;;;;;;;10.18;6.47;;;0.60;99.90;;;;;;4894711;29;20215;-70
2024/01/06 11:10:38;;;;;;;7.25;6.55;;;0.60;99.90;;;;;;4891170;29;20237;-70
2024/01/06 11:13:12;;;;;;;4.18;3.88;;;0.60;99.90;;;;;;4892208;29;20214;-70
2024/01/06 11:15:47;;;;;;;8.50;6.35;;;0.60;99.90;;;;;;4893267;29;20215;-70
2024/01/06 11:18:38;;;;;;;7.88;5.00;;;0.50;99.90;;;;;;4889277;29;20214;-70
2024/01/06 11:21:25;;;;;;;4.78;4.38;;;0.60;99.90;;;;;;4885337;29;20259;-71
2024/01/06 11:24:21;;;;;;;6.15;5.63;;;0.60;99.90;;;;;;4891945;29;20227;-71
2024/01/06 11:26:52;;;;;;;5.20;4.78;;;0.60;99.90;;;;;;4890287;29;20353;-70
2024/01/06 11:29:19;;;;;;;4.60;4.18;;;0.60;99.90;;;;;;4888533;29;20579;-71
2024/01/06 11:32:20;;;;;;;6.15;5.10;;;0.60;99.90;;;;;;4888357;29;20258;-70
2024/01/06 11:34:50;;;;;;;6.15;3.40;;;0.50;99.90;;;;;;4891668;29;20262;-70
2024/01/06 11:37:19;;;;;;;6.00;5.18;;;0.60;99.90;;;;;;4890716;29;20207;-70
2024/01/06 11:39:46;;;;;;;8.93;4.82;;;0.60;99.90;;;;;;4890404;29;20572;-71
2024/01/06 11:42:13;;;;;;;7.43;3.67;;;0.50;99.90;;;;;;4890575;29;20254;-70
2024/01/06 11:44:40;;;;;;;11.10;6.28;;;0.60;99.90;;;;;;4893439;29;20710;-70
2024/01/06 11:47:07;;;;;;;4.53;4.10;;;0.50;99.90;;;;;;4891888;29;20211;-70
2024/01/06 11:49:34;;;;;;;5.53;4.22;;;0.50;99.90;;;;;;4890089;29;20211;-70
2024/01/06 11:52:02;;;;;;;6.20;4.55;;;0.60;99.90;;;;;;4892231;29;20721;-70
2024/01/06 11:54:29;;;;;;;9.05;6.07;;;0.60;99.90;;;;;;4892996;29;20204;-70
2024/01/06 11:56:57;;;;;;;5.07;3.38;;;0.60;99.90;;;;;;4891363;29;20224;-71
2024/01/06 11:59:24;;;;;;;7.30;4.00;;;0.60;99.90;;;;;;4891040;29;20212;-70
2024/01/06 12:01:51;;;;;;;8.27;4.47;;;0.60;99.90;;;;;;4890786;29;20236;-70
2024/01/06 12:04:18;;;;;;;6.03;4.63;;;0.60;99.90;;;;;;4892821;29;20726;-71
2024/01/06 12:06:46;;;;;;;6.50;5.30;;;0.60;99.90;;;;;;4893638;29;20758;-71
2024/01/06 12:09:15;;;;;;;6.82;6.13;;;0.70;99.90;;;;;;4895364;29;20204;-71
2024/01/06 12:11:44;;;;;;;4.40;4.13;;;0.70;99.90;;;;;;4893537;29;20231;-69
2024/01/06 12:14:11;;;;;;;6.18;5.00;;;0.70;99.90;;;;;;4896898;29;20283;-68
2024/01/06 12:16:38;;;;;;;4.95;4.35;;;0.70;99.90;;;;;;4896214;29;20212;-67
2024/01/06 12:19:05;;;;;;;5.30;4.75;;;0.70;99.90;;;;;;4897455;29;20226;-69
2024/01/06 12:21:36;;;;;;;5.88;4.07;;;0.70;99.90;;;;;;4895955;29;20227;-70
2024/01/06 12:24:20;;;;;;;5.50;4.30;;;0.80;99.90;;;;;;4889602;29;20266;-69
2024/01/06 12:26:47;;;;;;;6.80;3.60;;;0.70;99.90;;;;;;4896211;29;20254;-69
2024/01/06 12:29:14;;;;;;;3.60;3.20;;;0.70;99.90;;;;;;4893324;29;20219;-69
2024/01/06 12:31:40;;;;;;;5.22;4.93;;;0.70;99.90;;;;;;4890621;29;20227;-70
2024/01/06 12:34:08;;;;;;;5.50;3.55;;;0.70;99.90;;;;;;4895029;29;20231;-68
2024/01/06 12:36:35;;;;;;;5.20;4.80;;;0.80;99.90;;;;;;4895585;29;20619;-69
2024/01/06 12:39:02;;;;;;;5.55;3.75;;;0.80;99.90;;;;;;4897927;29;20211;-69
2024/01/06 12:41:30;;;;;;;7.10;4.50;;;0.70;99.90;;;;;;4897397;29;20237;-73
2024/01/06 12:43:57;;;;;;;4.07;3.75;;;0.70;99.90;;;;;;4897358;29;20229;-69
2024/01/06 12:46:24;;;;;;;5.85;3.95;;;0.60;99.90;;;;;;4889592;29;20207;-70
2024/01/06 12:48:50;;;;;;;16.00;5.35;;;0.70;99.90;;;;;;4883461;29;20310;-69
2024/01/06 12:51:17;;;;;;;4.40;4.07;;;0.70;99.90;;;;;;4894566;29;20258;-70
2024/01/06 12:53:44;;;;;;;3.05;2.90;;;0.70;99.90;;;;;;4893393;29;20810;-70
2024/01/06 12:56:11;;;;;;;4.18;3.88;;;0.70;99.90;;;;;;4895198;29;20302;-70
2024/01/06 12:58:39;;;;;;;5.32;3.92;;;0.70;99.90;;;;;;4895458;29;20238;-70
2024/01/06 13:01:06;;;;;;;5.40;4.43;;;0.60;99.90;;;;;;4902131;29;20323;-71
2024/01/06 13:03:33;;;;;;;2.15;2.15;;;0.70;99.90;;;;;;4896078;29;20212;-70
2024/01/06 13:06:00;;;;;;;9.77;4.32;;;0.60;99.90;;;;;;4893805;29;20242;-70
2024/01/06 13:08:28;;;;;;;4.07;3.85;;;0.60;99.90;;;;;;4885530;29;20271;-71
2024/01/06 13:10:55;;;;;;;2.30;2.10;;;0.50;99.90;;;;;;4889591;29;20286;-70
2024/01/06 13:13:22;;;;;;;9.57;5.72;;;0.50;99.90;;;;;;4887076;29;20220;-70
2024/01/06 13:15:50;;;;;;;3.30;2.65;;;0.60;99.90;;;;;;4894682;29;20655;-71
2024/01/06 13:18:17;;;;;;;4.90;4.60;;;0.50;99.90;;;;;;4893529;29;20226;-71
2024/01/06 13:20:44;;;;;;;3.20;2.92;;;0.50;99.90;;;;;;4895229;29;20254;-70
2024/01/06 13:23:11;;;;;;;3.03;2.42;;;0.50;99.90;;;;;;4895797;29;20210;-70
2024/01/06 13:25:39;;;;;;;3.67;3.42;;;0.50;99.90;;;;;;4894404;29;20258;-71
2024/01/06 13:28:07;;;;;;;1.52;1.42;;;0.50;99.90;;;;;;4894084;29;20309;-71
2024/01/06 13:30:34;;;;;;;3.25;2.95;;;0.50;99.90;;;;;;4891170;29;20228;-71
2024/01/06 13:33:02;;;;;;;3.10;2.72;;;0.50;99.90;;;;;;4895910;29;20591;-71
2024/01/06 13:35:30;;;;;;;2.20;2.08;;;0.50;99.90;;;;;;4894324;29;20215;-70
2024/01/06 13:37:56;;;;;;;3.58;3.08;;;0.40;99.90;;;;;;4892393;29;20220;-71
2024/01/06 13:40:24;;;;;;;5.30;4.75;;;0.40;99.90;;;;;;4893659;29;20215;-71
2024/01/06 13:42:52;;;;;;;3.35;3.05;;;0.40;99.90;;;;;;4895759;29;20207;-71
2024/01/06 13:45:19;;;;;;;3.13;2.92;;;0.40;99.90;;;;;;4893857;29;20228;-70
2024/01/06 13:47:46;;;;;;;3.10;2.90;;;0.40;99.90;;;;;;4887833;29;20294;-68
2024/01/06 13:50:16;;;;;;;5.28;3.42;;;0.40;99.90;;;;;;4892903;29;20210;-70
2024/01/06 13:52:43;;;;;;;9.52;3.40;;;0.40;99.90;;;;;;4890937;29;20227;-70
2024/01/06 13:55:10;;;;;;;3.25;2.97;;;0.40;99.90;;;;;;4890908;29;20278;-69
2024/01/06 13:57:41;;;;;;;3.05;2.83;;;0.40;99.90;;;;;;4890860;29;20211;-68
2024/01/06 14:00:08;;;;;;;3.00;2.67;;;0.30;99.90;;;;;;4890977;29;20282;-69
2024/01/06 14:02:35;;;;;;;3.78;3.42;;;0.30;99.90;;;;;;4892675;29;20258;-68
2024/01/06 14:05:02;;;;;;;3.47;3.15;;;0.30;99.90;;;;;;4889608;29;20235;-68
2024/01/06 14:07:30;;;;;;;2.78;2.67;;;0.30;99.90;;;;;;4891470;29;20242;-68
2024/01/06 14:09:57;;;;;;;3.10;2.80;;;0.30;99.90;;;;;;4890375;29;20215;-69
2024/01/06 14:12:24;;;;;;;7.10;4.72;;;0.30;99.90;;;;;;4889330;29;20231;-69
2024/01/06 14:14:50;;;;;;;4.85;3.58;;;0.30;99.90;;;;;;4888928;29;20211;-70
2024/01/06 14:17:17;;;;;;;6.60;6.10;;;0.30;99.90;;;;;;4889227;29;20210;-70
2024/01/06 14:19:44;;;;;;;6.68;4.40;;;0.30;99.90;;;;;;4890580;29;20301;-71
2024/01/06 14:22:10;;;;;;;2.83;2.63;;;0.30;99.90;;;;;;4889299;29;20238;-72
2024/01/06 14:24:39;;;;;;;5.60;3.65;;;0.30;99.90;;;;;;4893390;29;20219;-69
2024/01/06 14:27:06;;;;;;;4.25;3.10;;;0.30;99.90;;;;;;4891964;29;20587;-70
2024/01/06 14:29:32;;;;;;;1.52;1.45;;;0.30;99.90;;;;;;4893811;29;20207;-69
2024/01/06 14:31:59;;;;;;;3.03;2.72;;;0.30;99.90;;;;;;4891763;29;20268;-71
2024/01/06 14:34:26;;;;;;;3.30;3.00;;;0.20;99.90;;;;;;4893804;29;20258;-71
2024/01/06 14:36:52;;;;;;;3.50;2.30;;;0.20;99.90;;;;;;4892895;29;20219;-71
2024/01/06 14:39:21;;;;;;;2.30;2.20;;;0.20;99.90;;;;;;4892658;29;20203;-71
2024/01/06 14:41:50;;;;;;;3.80;2.80;;;0.10;99.90;;;;;;4890631;29;20317;-70
2024/01/06 14:44:17;;;;;;;3.83;3.10;;;0.10;99.90;;;;;;4894294;29;20583;-71
2024/01/06 14:46:44;;;;;;;2.90;2.63;;;0.10;99.90;;;;;;4893824;29;20230;-71
2024/01/06 14:49:11;;;;;;;1.58;1.58;;;0.10;99.90;;;;;;4894077;29;20211;-70
2024/01/06 14:51:38;;;;;;;1.98;1.55;;;0.10;99.90;;;;;;4891169;29;20231;-70
2024/01/06 14:54:05;;;;;;;3.67;2.65;;;0.00;99.90;;;;;;4895166;29;20219;-70
2024/01/06 14:56:32;;;;;;;3.28;3.13;;;0.00;99.90;;;;;;4893911;29;20226;-70
2024/01/06 14:59:00;;;;;;;6.88;3.10;;;0.00;99.90;;;;;;4892842;29;20303;-71
2024/01/06 15:01:27;;;;;;;3.15;2.42;;;0.00;99.90;;;;;;4889397;29;20235;-71
2024/01/06 15:03:53;;;;;;;4.05;2.25;;;0.00;99.90;;;;;;4888412;29;20211;-71
2024/01/06 15:06:20;;;;;;;2.25;2.08;;;0.00;99.90;;;;;;4895621;29;20246;-70
2024/01/06 15:08:47;;;;;;;3.00;2.80;;;0.00;99.90;;;;;;4889073;29;20215;-71
2024/01/06 15:11:13;;;;;;;3.67;1.95;;;0.00;99.90;;;;;;4889742;29;20309;-71
2024/01/06 15:13:40;;;;;;;5.45;3.70;;;0.00;99.90;;;;;;4891428;29;20585;-70
2024/01/06 15:16:08;;;;;;;3.30;3.00;;;0.00;99.90;;;;;;4891197;29;20213;-70
2024/01/06 15:18:35;;;;;;;5.70;3.53;;;0.00;99.90;;;;;;4888599;29;20215;-70
2024/01/06 15:21:02;;;;;;;3.00;2.70;;;0.00;99.90;;;;;;4892474;29;20234;-70
2024/01/06 15:23:29;;;;;;;2.47;2.28;;;0.00;99.90;;;;;;4891050;29;20203;-71
2024/01/06 15:25:56;;;;;;;3.97;2.72;;;0.00;99.90;;;;;;4893251;29;20223;-73
2024/01/06 15:28:22;;;;;;;2.92;2.72;;;0.00;99.90;;;;;;4892128;29;20214;-71
2024/01/06 15:30:49;;;;;;;5.40;3.25;;;0.00;99.90;;;;;;4892966;29;20253;-72
2024/01/06 15:33:17;;;;;;;3.58;3.28;;;0.00;99.90;;;;;;4892104;29;20569;-72
2024/01/06 15:35:44;;;;;;;2.63;2.53;;;0.00;99.90;;;;;;4892176;29;20226;-71
2024/01/06 15:38:11;;;;;;;4.05;3.03;;;0.00;99.90;;;;;;4892565;29;20207;-71
2024/01/06 15:40:38;;;;;;;4.82;3.08;;;0.00;99.90;;;;;;4889968;29;20235;-71
2024/01/06 15:43:04;;;;;;;3.00;2.75;;;0.00;99.90;;;;;;4896825;29;20208;-72
2024/01/06 15:45:31;;;;;;;2.95;2.38;;;0.00;99.90;;;;;;4886925;29;20652;-72
2024/01/06 15:47:58;;;;;;;8.88;2.80;;;0.00;99.90;;;;;;4895592;29;20294;-73
2024/01/06 15:50:27;;;;;;;3.15;2.88;;;0.00;99.90;;;;;;4896666;29;20219;-72
2024/01/06 15:52:53;;;;;;;3.15;2.05;;;0.00;99.90;;;;;;4896519;29;20258;-72
2024/01/06 15:55:20;;;;;;;1.58;1.48;;;0.00;99.90;;;;;;4895514;29;20211;-72
2024/01/06 15:57:47;;;;;;;2.05;2.03;;;0.00;99.90;;;;;;4895571;29;20665;-72
2024/01/06 16:00:16;;;;;;;3.92;2.10;;;0.00;99.90;;;;;;4890676;29;20211;-73
2024/01/06 16:02:43;;;;;;;3.15;2.95;;;0.00;99.90;;;;;;4892808;29;20218;-72
2024/01/06 16:05:10;;;;;;;2.85;2.60;;;0.00;99.90;;;;;;4892966;29;20215;-73
2024/01/06 16:07:38;;;;;;;1.95;1.85;;;0.00;99.90;;;;;;4895931;29;20203;-74
2024/01/06 16:10:07;;;;;;;2.72;2.53;;;0.00;99.90;;;;;;4893005;29;20212;-71
2024/01/06 16:12:34;;;;;;;7.55;3.67;;;0.00;99.90;;;;;;4895475;29;20318;-71
2024/01/06 16:15:01;;;;;;;4.03;3.58;;;0.00;99.90;;;;;;4894009;29;20615;-72
2024/01/06 16:17:27;;;;;;;3.13;3.03;;;0.00;99.90;;;;;;4895634;29;20220;-71
2024/01/06 16:19:54;;;;;;;2.10;2.00;;;-0.10;99.90;;;;;;4892429;29;20207;-72
2024/01/06 16:22:21;;;;;;;5.68;2.60;;;-0.10;99.90;;;;;;4895081;29;20227;-72
2024/01/06 16:24:49;;;;;;;4.28;2.70;;;-0.10;99.90;;;;;;4889789;29;20212;-72
2024/01/06 16:27:16;;;;;;;1.83;1.73;;;-0.10;99.90;;;;;;4892461;29;20243;-70
2024/01/06 16:29:42;;;;;;;2.85;2.65;;;-0.10;99.90;;;;;;4890296;29;20207;-71
2024/01/06 16:32:09;;;;;;;3.90;2.63;;;-0.10;99.90;;;;;;4893650;29;20239;-71
2024/01/06 16:34:38;;;;;;;7.45;3.22;;;0.00;99.90;;;;;;4894470;29;20218;-70
2024/01/06 16:37:05;;;;;;;6.13;3.45;;;0.00;99.90;;;;;;4891959;29;20211;-70
2024/01/06 16:39:33;;;;;;;2.47;1.65;;;0.00;99.90;;;;;;4895438;29;20208;-70
2024/01/06 16:42:01;;;;;;;1.83;1.63;;;0.00;99.90;;;;;;4890784;29;20653;-72
2024/01/06 16:44:28;;;;;;;2.88;2.58;;;0.00;99.90;;;;;;4893895;29;20219;-71
2024/01/06 16:46:58;;;;;;;3.78;3.42;;;0.00;99.90;;;;;;4894889;29;20227;-73
2024/01/06 16:49:26;;;;;;;3.03;2.28;;;0.00;99.90;;;;;;4894589;29;20203;-71
2024/01/06 16:51:53;;;;;;;3.58;3.38;;;0.00;99.90;;;;;;4893923;29;20314;-71
2024/01/06 16:54:20;;;;;;;2.33;1.90;;;0.00;99.90;;;;;;4893624;29;20212;-73
2024/01/06 16:56:47;;;;;;;2.97;2.80;;;0.00;99.90;;;;;;4891462;29;20234;-73
2024/01/06 16:59:15;;;;;;;4.30;4.07;;;0.00;99.90;;;;;;4893446;29;20203;-73
2024/01/06 17:01:42;;;;;;;2.45;2.25;;;0.00;99.90;;;;;;4895092;29;20250;-73
2024/01/06 17:04:09;;;;;;;2.28;2.05;;;0.00;99.90;;;;;;4896007;29;20219;-71
2024/01/06 17:06:36;;;;;;;3.63;3.15;;;0.00;99.90;;;;;;4893630;29;20227;-71
2024/01/06 17:09:03;;;;;;;3.47;2.88;;;-0.10;99.90;;;;;;4895172;29;20270;-72
2024/01/06 17:11:30;;;;;;;2.75;2.45;;;-0.10;99.90;;;;;;4893720;29;20233;-71
2024/01/06 17:13:56;;;;;;;2.55;2.35;;;-0.10;99.90;;;;;;4893618;29;20222;-71
2024/01/06 17:16:25;;;;;;;2.85;2.75;;;0.00;99.90;;;;;;4895687;29;20204;-72
2024/01/06 17:18:52;;;;;;;3.20;3.00;;;-0.10;99.90;;;;;;4892781;29;20670;-71
2024/01/06 17:21:19;;;;;;;3.30;3.03;;;-0.10;99.90;;;;;;4894642;29;20611;-71
2024/01/06 17:23:47;;;;;;;3.90;3.33;;;-0.10;99.90;;;;;;4894495;29;20249;-72
2024/01/06 17:26:14;;;;;;;3.70;2.15;;;-0.10;99.90;;;;;;4888988;29;20338;-72
2024/01/06 17:28:41;;;;;;;3.30;2.63;;;-0.10;99.90;;;;;;4893205;29;20225;-74
2024/01/06 17:31:08;;;;;;;4.78;3.70;;;0.00;99.90;;;;;;4891051;29;20603;-71
2024/01/06 17:33:36;;;;;;;5.13;2.47;;;0.00;99.90;;;;;;4889886;29;20212;-71
2024/01/06 17:36:03;;;;;;;2.95;2.75;;;0.00;99.90;;;;;;4892668;29;20719;-72
2024/01/06 17:38:30;;;;;;;7.30;5.55;;;-0.10;99.90;;;;;;4894768;29;20282;-71
2024/01/06 17:40:57;;;;;;;2.80;2.60;;;-0.10;99.90;;;;;;4891247;29;20230;-70
2024/01/06 17:43:24;;;;;;;5.70;3.42;;;0.00;99.90;;;;;;4888814;29;20588;-70
2024/01/06 17:45:50;;;;;;;4.28;4.00;;;0.00;99.90;;;;;;4893857;29;20316;-71
2024/01/06 17:48:17;;;;;;;4.38;4.10;;;-0.10;99.90;;;;;;4892010;29;20537;-70
2024/01/06 17:50:45;;;;;;;3.67;3.28;;;0.00;99.90;;;;;;4895465;29;20235;-72
2024/01/06 17:53:12;;;;;;;3.85;3.55;;;-0.10;99.90;;;;;;4895112;29;20698;-71
2024/01/06 17:55:39;;;;;;;4.00;3.22;;;-0.10;99.90;;;;;;4889866;29;20211;-71
2024/01/06 17:58:06;;;;;;;7.85;2.67;;;0.00;99.90;;;;;;4894290;29;20215;-70